sensor_id;sensor_type;location;lat;lon;timestamp;pressure;altitude;pressure_sealevel;temperature;humidity
3844;BME280;1937;51.444;6.484;2023-09-18T00:02:01;70680.22;;;19.58;100.00
3844;BME280;1937;51.444;6.484;2023-09-18T00:04:27;70692.28;;;19.62;100.00
3844;BME280;1937;51.444;6.484;2023-09-18T00:06:54;70714.41;;;19.70;100.00
3844;BME280;1937;51.444;6.484;2023-09-18T00:09:21;70705.78;;;19.71;100.00
3844;BME280;1937;51.444;6.484;2023-09-18T00:11:48;70764.31;;;19.74;100.00
3844;BME280;1937;51.444;6.484;2023-09-18T00:14:16;70702.78;;;19.75;100.00
3844;BME280;1937;51.444;6.484;2023-09-18T00:16:42;70759.53;;;19.83;100.00
3844;BME280;1937;51.444;6.484;2023-09-18T00:19:09;70796.13;;;19.83;100.00
3844;BME280;1937;51.444;6.484;2023-09-18T00:21:36;70792.50;;;19.80;100.00
3844;BME280;1937;51.444;6.484;2023-09-18T00:24:03;70825.09;;;19.81;100.00
3844;BME280;1937;51.444;6.484;2023-09-18T00:26:30;70757.88;;;19.80;100.00
3844;BME280;1937;51.444;6.484;2023-09-18T00:28:56;70814.63;;;19.81;100.00
3844;BME280;1937;51.444;6.484;2023-09-18T00:31:24;70806.59;;;19.83;100.00
3844;BME280;1937;51.444;6.484;2023-09-18T00:33:51;70843.81;;;19.84;100.00
3844;BME280;1937;51.444;6.484;2023-09-18T00:36:19;70843.00;;;19.85;100.00
3844;BME280;1937;51.444;6.484;2023-09-18T00:38:45;70818.63;;;19.80;100.00
3844;BME280;1937;51.444;6.484;2023-09-18T00:41:12;70781.19;;;19.69;100.00
3844;BME280;1937;51.444;6.484;2023-09-18T00:43:39;70719.63;;;19.63;100.00
3844;BME280;1937;51.444;6.484;2023-09-18T00:46:06;70743.56;;;19.66;100.00
3844;BME280;1937;51.444;6.484;2023-09-18T00:48:34;70715.44;;;19.66;100.00
3844;BME280;1937;51.444;6.484;2023-09-18T00:51:01;70730.50;;;19.66;100.00
3844;BME280;1937;51.444;6.484;2023-09-18T00:53:28;70696.91;;;19.61;100.00
3844;BME280;1937;51.444;6.484;2023-09-18T00:55:57;70710.78;;;19.60;100.00
3844;BME280;1937;51.444;6.484;2023-09-18T00:58:26;70725.47;;;19.63;100.00
3844;BME280;1937;51.444;6.484;2023-09-18T01:00:53;70740.75;;;19.68;100.00
3844;BME280;1937;51.444;6.484;2023-09-18T01:03:21;70768.53;;;19.71;100.00
3844;BME280;1937;51.444;6.484;2023-09-18T01:05:53;70728.28;;;19.68;100.00
3844;BME280;1937;51.444;6.484;2023-09-18T01:08:20;70752.66;;;19.73;100.00
3844;BME280;1937;51.444;6.484;2023-09-18T01:10:52;70787.47;;;19.78;100.00
3844;BME280;1937;51.444;6.484;2023-09-18T01:13:23;70774.38;;;19.72;100.00
3844;BME280;1937;51.444;6.484;2023-09-18T01:15:54;70758.72;;;19.78;100.00
3844;BME280;1937;51.444;6.484;2023-09-18T01:18:24;70787.88;;;19.81;100.00
3844;BME280;1937;51.444;6.484;2023-09-18T01:20:52;70880.03;;;19.88;100.00
3844;BME280;1937;51.444;6.484;2023-09-18T01:23:20;70896.16;;;19.90;100.00
3844;BME280;1937;51.444;6.484;2023-09-18T01:25:46;70849.28;;;19.95;100.00
3844;BME280;1937;51.444;6.484;2023-09-18T01:28:13;70913.06;;;19.98;100.00
3844;BME280;1937;51.444;6.484;2023-09-18T01:30:41;70893.19;;;20.01;100.00
3844;BME280;1937;51.444;6.484;2023-09-18T01:33:09;70867.19;;;19.92;100.00
3844;BME280;1937;51.444;6.484;2023-09-18T01:35:36;70860.53;;;19.93;100.00
3844;BME280;1937;51.444;6.484;2023-09-18T01:38:04;70894.72;;;19.91;100.00
3844;BME280;1937;51.444;6.484;2023-09-18T01:40:33;70924.53;;;19.94;100.00
3844;BME280;1937;51.444;6.484;2023-09-18T01:43:00;70917.69;;;19.97;100.00
3844;BME280;1937;51.444;6.484;2023-09-18T01:45:26;70921.75;;;20.03;100.00
3844;BME280;1937;51.444;6.484;2023-09-18T01:47:53;70934.44;;;20.00;100.00
3844;BME280;1937;51.444;6.484;2023-09-18T01:50:20;70912.88;;;20.00;100.00
3844;BME280;1937;51.444;6.484;2023-09-18T01:52:46;70929.19;;;20.00;100.00
3844;BME280;1937;51.444;6.484;2023-09-18T01:55:13;70922.34;;;20.03;100.00
3844;BME280;1937;51.444;6.484;2023-09-18T01:57:41;70973.97;;;20.18;100.00
3844;BME280;1937;51.444;6.484;2023-09-18T02:00:08;71022.50;;;20.24;100.00
3844;BME280;1937;51.444;6.484;2023-09-18T02:02:36;71040.50;;;20.34;100.00
3844;BME280;1937;51.444;6.484;2023-09-18T02:05:03;71004.28;;;20.37;100.00
3844;BME280;1937;51.444;6.484;2023-09-18T02:07:29;70895.69;;;20.23;100.00
3844;BME280;1937;51.444;6.484;2023-09-18T02:09:57;70958.97;;;20.32;100.00
3844;BME280;1937;51.444;6.484;2023-09-18T02:12:23;70957.97;;;20.35;100.00
3844;BME280;1937;51.444;6.484;2023-09-18T02:14:51;70909.09;;;20.47;99.10
3844;BME280;1937;51.444;6.484;2023-09-18T02:17:18;70880.50;;;20.45;98.89
3844;BME280;1937;51.444;6.484;2023-09-18T02:19:45;70909.34;;;20.58;98.13
3844;BME280;1937;51.444;6.484;2023-09-18T02:22:12;70907.53;;;20.57;97.98
3844;BME280;1937;51.444;6.484;2023-09-18T02:24:38;70884.78;;;20.68;97.69
3844;BME280;1937;51.444;6.484;2023-09-18T02:27:05;70906.34;;;20.69;97.02
3844;BME280;1937;51.444;6.484;2023-09-18T02:29:32;70905.19;;;20.81;96.41
3844;BME280;1937;51.444;6.484;2023-09-18T02:32:00;70894.13;;;20.94;96.17
3844;BME280;1937;51.444;6.484;2023-09-18T02:34:27;70856.66;;;20.89;96.93
3844;BME280;1937;51.444;6.484;2023-09-18T02:36:54;70848.19;;;20.88;96.26
3844;BME280;1937;51.444;6.484;2023-09-18T02:39:20;70817.16;;;20.91;95.02
3844;BME280;1937;51.444;6.484;2023-09-18T02:41:47;70804.06;;;21.04;94.60
3844;BME280;1937;51.444;6.484;2023-09-18T02:44:14;70757.13;;;20.89;95.68
3844;BME280;1937;51.444;6.484;2023-09-18T02:46:41;70802.25;;;20.96;94.22
3844;BME280;1937;51.444;6.484;2023-09-18T02:49:09;70782.72;;;20.95;94.57
3844;BME280;1937;51.444;6.484;2023-09-18T02:51:36;70776.66;;;21.03;93.95
3844;BME280;1937;51.444;6.484;2023-09-18T02:54:03;70752.28;;;20.98;94.03
3844;BME280;1937;51.444;6.484;2023-09-18T02:56:30;70762.34;;;21.08;93.52
3844;BME280;1937;51.444;6.484;2023-09-18T02:58:56;70782.72;;;21.14;93.29
3844;BME280;1937;51.444;6.484;2023-09-18T03:01:23;70686.38;;;21.02;92.79
3844;BME280;1937;51.444;6.484;2023-09-18T03:03:49;70687.19;;;21.07;93.09
3844;BME280;1937;51.444;6.484;2023-09-18T03:06:17;70753.91;;;21.14;92.49
3844;BME280;1937;51.444;6.484;2023-09-18T03:08:44;70706.13;;;21.14;91.75
3844;BME280;1937;51.444;6.484;2023-09-18T03:11:11;70634.56;;;21.15;90.78
3844;BME280;1937;51.444;6.484;2023-09-18T03:13:43;70635.97;;;21.14;90.66
3844;BME280;1937;51.444;6.484;2023-09-18T03:16:10;70682.94;;;21.23;91.23
3844;BME280;1937;51.444;6.484;2023-09-18T03:18:37;70627.09;;;21.24;90.46
3844;BME280;1937;51.444;6.484;2023-09-18T03:21:04;70594.63;;;21.21;90.35
3844;BME280;1937;51.444;6.484;2023-09-18T03:23:32;70608.53;;;21.27;90.34
3844;BME280;1937;51.444;6.484;2023-09-18T03:25:58;70648.25;;;21.29;90.37
3844;BME280;1937;51.444;6.484;2023-09-18T03:28:25;70566.66;;;21.20;90.07
3844;BME280;1937;51.444;6.484;2023-09-18T03:30:52;70600.66;;;21.33;89.79
3844;BME280;1937;51.444;6.484;2023-09-18T03:33:18;70543.84;;;21.25;89.90
3844;BME280;1937;51.444;6.484;2023-09-18T03:35:46;70565.59;;;21.30;89.86
3844;BME280;1937;51.444;6.484;2023-09-18T03:38:13;70559.97;;;21.21;90.60
3844;BME280;1937;51.444;6.484;2023-09-18T03:40:41;70561.00;;;21.17;90.03
3844;BME280;1937;51.444;6.484;2023-09-18T03:43:09;70533.59;;;21.10;91.42
3844;BME280;1937;51.444;6.484;2023-09-18T03:45:36;70563.19;;;21.21;90.06
3844;BME280;1937;51.444;6.484;2023-09-18T03:48:03;70528.34;;;21.16;89.92
3844;BME280;1937;51.444;6.484;2023-09-18T03:50:29;70536.22;;;21.16;90.23
3844;BME280;1937;51.444;6.484;2023-09-18T03:52:56;70526.78;;;21.00;93.29
3844;BME280;1937;51.444;6.484;2023-09-18T03:55:22;70587.03;;;20.93;95.75
3844;BME280;1937;51.444;6.484;2023-09-18T03:57:52;70669.09;;;20.78;97.26
3844;BME280;1937;51.444;6.484;2023-09-18T04:00:19;70653.75;;;20.68;98.73
3844;BME280;1937;51.444;6.484;2023-09-18T04:02:45;70723.03;;;20.62;99.28
3844;BME280;1937;51.444;6.484;2023-09-18T04:05:12;70683.38;;;20.47;100.00
3844;BME280;1937;51.444;6.484;2023-09-18T04:07:39;70796.47;;;20.27;100.00
3844;BME280;1937;51.444;6.484;2023-09-18T04:10:06;70866.13;;;20.31;100.00
3844;BME280;1937;51.444;6.484;2023-09-18T04:12:33;70885.69;;;20.32;100.00
3844;BME280;1937;51.444;6.484;2023-09-18T04:15:02;70942.03;;;20.31;100.00
3844;BME280;1937;51.444;6.484;2023-09-18T04:17:29;71101.84;;;20.29;100.00
3844;BME280;1937;51.444;6.484;2023-09-18T04:19:56;71013.88;;;20.25;100.00
3844;BME280;1937;51.444;6.484;2023-09-18T04:22:22;71072.53;;;20.35;100.00
3844;BME280;1937;51.444;6.484;2023-09-18T04:24:49;71111.78;;;20.35;100.00
3844;BME280;1937;51.444;6.484;2023-09-18T04:27:15;71045.03;;;20.21;100.00
3844;BME280;1937;51.444;6.484;2023-09-18T04:29:42;71039.72;;;20.08;100.00
3844;BME280;1937;51.444;6.484;2023-09-18T04:32:10;71042.41;;;19.92;100.00
3844;BME280;1937;51.444;6.484;2023-09-18T04:34:36;71131.94;;;19.93;100.00
3844;BME280;1937;51.444;6.484;2023-09-18T04:37:04;71125.63;;;19.83;100.00
3844;BME280;1937;51.444;6.484;2023-09-18T04:39:31;71094.56;;;19.73;100.00
3844;BME280;1937;51.444;6.484;2023-09-18T04:42:01;71156.19;;;19.63;100.00
3844;BME280;1937;51.444;6.484;2023-09-18T04:44:30;71217.72;;;19.62;100.00
3844;BME280;1937;51.444;6.484;2023-09-18T04:46:57;71291.63;;;19.69;100.00
3844;BME280;1937;51.444;6.484;2023-09-18T04:49:25;71330.31;;;19.75;100.00
3844;BME280;1937;51.444;6.484;2023-09-18T04:51:53;71405.81;;;19.94;100.00
3844;BME280;1937;51.444;6.484;2023-09-18T04:54:19;71409.13;;;20.01;100.00
3844;BME280;1937;51.444;6.484;2023-09-18T04:56:46;71272.53;;;19.71;100.00
3844;BME280;1937;51.444;6.484;2023-09-18T04:59:13;71346.72;;;19.67;100.00
3844;BME280;1937;51.444;6.484;2023-09-18T05:01:39;71368.66;;;19.85;100.00
3844;BME280;1937;51.444;6.484;2023-09-18T05:04:06;71344.38;;;19.72;100.00
3844;BME280;1937;51.444;6.484;2023-09-18T05:06:35;71451.94;;;19.83;100.00
3844;BME280;1937;51.444;6.484;2023-09-18T05:09:01;71368.78;;;19.77;100.00
3844;BME280;1937;51.444;6.484;2023-09-18T05:11:28;71426.56;;;19.81;100.00
3844;BME280;1937;51.444;6.484;2023-09-18T05:13:55;71366.22;;;19.68;100.00
3844;BME280;1937;51.444;6.484;2023-09-18T05:16:22;71322.81;;;19.56;100.00
3844;BME280;1937;51.444;6.484;2023-09-18T05:18:48;71345.69;;;19.49;100.00
3844;BME280;1937;51.444;6.484;2023-09-18T05:21:15;71399.09;;;19.58;100.00
3844;BME280;1937;51.444;6.484;2023-09-18T05:23:44;71488.34;;;19.70;100.00
3844;BME280;1937;51.444;6.484;2023-09-18T05:26:10;71433.44;;;19.70;100.00
3844;BME280;1937;51.444;6.484;2023-09-18T05:28:37;71452.53;;;19.68;100.00
3844;BME280;1937;51.444;6.484;2023-09-18T05:31:04;71520.19;;;19.72;100.00
3844;BME280;1937;51.444;6.484;2023-09-18T05:33:30;71390.53;;;19.51;100.00
3844;BME280;1937;51.444;6.484;2023-09-18T05:35:57;71351.22;;;19.45;100.00
3844;BME280;1937;51.444;6.484;2023-09-18T05:38:23;71375.94;;;19.31;100.00
3844;BME280;1937;51.444;6.484;2023-09-18T05:40:52;71421.91;;;19.28;100.00
3844;BME280;1937;51.444;6.484;2023-09-18T05:43:18;71477.97;;;19.37;100.00
3844;BME280;1937;51.444;6.484;2023-09-18T05:45:45;71560.31;;;19.53;100.00
3844;BME280;1937;51.444;6.484;2023-09-18T05:48:12;71565.47;;;19.62;100.00
3844;BME280;1937;51.444;6.484;2023-09-18T05:50:38;71545.50;;;19.58;100.00
3844;BME280;1937;51.444;6.484;2023-09-18T05:53:07;71604.78;;;19.69;100.00
3844;BME280;1937;51.444;6.484;2023-09-18T05:55:34;71532.13;;;19.78;100.00
3844;BME280;1937;51.444;6.484;2023-09-18T05:58:02;71614.47;;;19.94;100.00
3844;BME280;1937;51.444;6.484;2023-09-18T06:00:30;71517.66;;;19.79;100.00
3844;BME280;1937;51.444;6.484;2023-09-18T06:02:56;71489.34;;;19.81;100.00
3844;BME280;1937;51.444;6.484;2023-09-18T06:05:24;71344.00;;;19.76;100.00
3844;BME280;1937;51.444;6.484;2023-09-18T06:07:51;71387.34;;;19.81;100.00
3844;BME280;1937;51.444;6.484;2023-09-18T06:10:18;71336.09;;;19.84;100.00
3844;BME280;1937;51.444;6.484;2023-09-18T06:12:45;71319.34;;;19.81;100.00
3844;BME280;1937;51.444;6.484;2023-09-18T06:15:13;71324.44;;;20.05;100.00
3844;BME280;1937;51.444;6.484;2023-09-18T06:17:41;71286.09;;;19.95;100.00
3844;BME280;1937;51.444;6.484;2023-09-18T06:20:10;71217.84;;;19.90;100.00
3844;BME280;1937;51.444;6.484;2023-09-18T06:22:38;71197.09;;;19.88;100.00
3844;BME280;1937;51.444;6.484;2023-09-18T06:25:06;71197.03;;;19.82;100.00
3844;BME280;1937;51.444;6.484;2023-09-18T06:27:34;71315.56;;;20.02;100.00
3844;BME280;1937;51.444;6.484;2023-09-18T06:30:02;71201.88;;;19.86;100.00
3844;BME280;1937;51.444;6.484;2023-09-18T06:32:30;71200.53;;;20.09;100.00
3844;BME280;1937;51.444;6.484;2023-09-18T06:34:56;71118.28;;;20.21;99.60
3844;BME280;1937;51.444;6.484;2023-09-18T06:37:24;71028.03;;;20.35;97.94
3844;BME280;1937;51.444;6.484;2023-09-18T06:39:50;71010.94;;;20.36;97.84
3844;BME280;1937;51.444;6.484;2023-09-18T06:42:17;70934.47;;;20.42;96.68
3844;BME280;1937;51.444;6.484;2023-09-18T06:44:44;70902.84;;;20.44;96.09
3844;BME280;1937;51.444;6.484;2023-09-18T06:47:10;70885.53;;;20.47;95.66
3844;BME280;1937;51.444;6.484;2023-09-18T06:49:38;70883.13;;;20.52;95.65
3844;BME280;1937;51.444;6.484;2023-09-18T06:52:07;70919.41;;;20.62;95.21
3844;BME280;1937;51.444;6.484;2023-09-18T06:54:34;70833.63;;;20.69;93.63
3844;BME280;1937;51.444;6.484;2023-09-18T06:57:01;70785.72;;;20.77;93.49
3844;BME280;1937;51.444;6.484;2023-09-18T06:59:28;70791.34;;;20.67;94.04
3844;BME280;1937;51.444;6.484;2023-09-18T07:01:55;70771.00;;;20.80;93.31
3844;BME280;1937;51.444;6.484;2023-09-18T07:04:21;70823.19;;;20.89;92.48
3844;BME280;1937;51.444;6.484;2023-09-18T07:06:49;70757.72;;;20.96;91.58
3844;BME280;1937;51.444;6.484;2023-09-18T07:09:17;70733.72;;;20.93;91.79
3844;BME280;1937;51.444;6.484;2023-09-18T07:11:44;70779.28;;;21.03;92.14
3844;BME280;1937;51.444;6.484;2023-09-18T07:14:10;70710.34;;;20.91;91.49
3844;BME280;1937;51.444;6.484;2023-09-18T07:16:37;70702.28;;;21.06;91.56
3844;BME280;1937;51.444;6.484;2023-09-18T07:19:03;70739.19;;;21.17;91.13
3844;BME280;1937;51.444;6.484;2023-09-18T07:21:31;70722.66;;;21.06;91.23
3844;BME280;1937;51.444;6.484;2023-09-18T07:23:58;70645.25;;;21.13;90.21
3844;BME280;1937;51.444;6.484;2023-09-18T07:26:25;70739.78;;;21.24;90.53
3844;BME280;1937;51.444;6.484;2023-09-18T07:28:52;70667.00;;;21.25;90.78
3844;BME280;1937;51.444;6.484;2023-09-18T07:31:18;70682.53;;;21.27;89.46
3844;BME280;1937;51.444;6.484;2023-09-18T07:33:45;70690.59;;;21.25;90.07
3844;BME280;1937;51.444;6.484;2023-09-18T07:36:11;70656.53;;;21.32;89.64
3844;BME280;1937;51.444;6.484;2023-09-18T07:38:40;70697.78;;;21.51;88.86
3844;BME280;1937;51.444;6.484;2023-09-18T07:41:09;70620.22;;;21.34;88.69
3844;BME280;1937;51.444;6.484;2023-09-18T07:43:36;70626.22;;;21.46;88.14
3844;BME280;1937;51.444;6.484;2023-09-18T07:46:04;70620.78;;;21.41;88.33
3844;BME280;1937;51.444;6.484;2023-09-18T07:48:31;70636.94;;;21.44;88.17
3844;BME280;1937;51.444;6.484;2023-09-18T07:50:57;70582.47;;;21.44;87.62
3844;BME280;1937;51.444;6.484;2023-09-18T07:53:24;70562.91;;;21.43;87.33
3844;BME280;1937;51.444;6.484;2023-09-18T07:55:55;70495.44;;;21.31;88.06
3844;BME280;1937;51.444;6.484;2023-09-18T07:58:24;70589.50;;;21.52;87.25
3844;BME280;1937;51.444;6.484;2023-09-18T08:00:53;70557.03;;;21.49;87.24
3844;BME280;1937;51.444;6.484;2023-09-18T08:03:19;70556.16;;;21.64;87.39
3844;BME280;1937;51.444;6.484;2023-09-18T08:05:49;70590.84;;;21.64;87.70
3844;BME280;1937;51.444;6.484;2023-09-18T08:08:16;70620.06;;;21.74;85.97
3844;BME280;1937;51.444;6.484;2023-09-18T08:10:42;70531.75;;;21.65;86.71
3844;BME280;1937;51.444;6.484;2023-09-18T08:13:09;70603.50;;;21.75;86.27
3844;BME280;1937;51.444;6.484;2023-09-18T08:15:37;70534.94;;;21.73;86.33
3844;BME280;1937;51.444;6.484;2023-09-18T08:18:04;70502.03;;;21.74;84.48
3844;BME280;1937;51.444;6.484;2023-09-18T08:20:31;70490.56;;;21.71;85.83
3844;BME280;1937;51.444;6.484;2023-09-18T08:22:59;70501.44;;;21.73;85.43
3844;BME280;1937;51.444;6.484;2023-09-18T08:25:27;70569.75;;;21.91;85.75
3844;BME280;1937;51.444;6.484;2023-09-18T08:27:53;70612.25;;;22.04;84.76
3844;BME280;1937;51.444;6.484;2023-09-18T08:30:20;70629.75;;;22.19;83.49
3844;BME280;1937;51.444;6.484;2023-09-18T08:32:48;70661.34;;;22.43;82.66
3844;BME280;1937;51.444;6.484;2023-09-18T08:35:15;70615.66;;;22.47;82.40
3844;BME280;1937;51.444;6.484;2023-09-18T08:37:42;70580.13;;;22.41;82.02
3844;BME280;1937;51.444;6.484;2023-09-18T08:40:10;70583.75;;;22.44;81.57
3844;BME280;1937;51.444;6.484;2023-09-18T08:42:40;70576.72;;;22.43;82.10
3844;BME280;1937;51.444;6.484;2023-09-18T08:45:09;70469.38;;;22.28;81.64
3844;BME280;1937;51.444;6.484;2023-09-18T08:47:37;70476.63;;;22.27;82.57
3844;BME280;1937;51.444;6.484;2023-09-18T08:50:08;70597.09;;;22.42;82.80
3844;BME280;1937;51.444;6.484;2023-09-18T08:52:35;70601.41;;;22.64;81.31
3844;BME280;1937;51.444;6.484;2023-09-18T08:55:03;70496.28;;;22.46;80.53
3844;BME280;1937;51.444;6.484;2023-09-18T08:57:30;70483.91;;;22.51;80.50
3844;BME280;1937;51.444;6.484;2023-09-18T08:59:58;70447.06;;;22.40;80.99
3844;BME280;1937;51.444;6.484;2023-09-18T09:02:31;70529.28;;;22.63;81.19
3844;BME280;1937;51.444;6.484;2023-09-18T09:04:58;70512.09;;;22.64;80.02
3844;BME280;1937;51.444;6.484;2023-09-18T09:07:26;70549.19;;;22.79;79.43
3844;BME280;1937;51.444;6.484;2023-09-18T09:09:54;70415.44;;;22.53;79.41
3844;BME280;1937;51.444;6.484;2023-09-18T09:12:53;70398.16;;;22.43;79.76
3844;BME280;1937;51.444;6.484;2023-09-18T09:15:21;70443.91;;;22.51;79.48
3844;BME280;1937;51.444;6.484;2023-09-18T09:17:48;70353.13;;;22.40;79.66
3844;BME280;1937;51.444;6.484;2023-09-18T09:20:15;70406.19;;;22.48;79.48
3844;BME280;1937;51.444;6.484;2023-09-18T09:22:45;70405.13;;;22.51;79.81
3844;BME280;1937;51.444;6.484;2023-09-18T09:25:24;70476.84;;;22.74;79.51
3844;BME280;1937;51.444;6.484;2023-09-18T09:27:53;70457.75;;;22.62;79.28
3844;BME280;1937;51.444;6.484;2023-09-18T09:30:20;70457.28;;;22.73;78.52
3844;BME280;1937;51.444;6.484;2023-09-18T09:32:48;70453.00;;;22.76;79.24
3844;BME280;1937;51.444;6.484;2023-09-18T09:35:23;70521.94;;;22.94;78.68
3844;BME280;1937;51.444;6.484;2023-09-18T09:37:54;70574.72;;;23.16;77.48
3844;BME280;1937;51.444;6.484;2023-09-18T09:40:23;70534.41;;;23.24;77.46
3844;BME280;1937;51.444;6.484;2023-09-18T09:42:51;70743.38;;;23.74;75.75
3844;BME280;1937;51.444;6.484;2023-09-18T09:45:19;70578.25;;;23.50;74.88
3844;BME280;1937;51.444;6.484;2023-09-18T09:47:46;70450.41;;;23.29;74.57
3844;BME280;1937;51.444;6.484;2023-09-18T09:50:15;70415.50;;;23.06;76.33
3844;BME280;1937;51.444;6.484;2023-09-18T09:52:45;70443.13;;;23.12;77.32
3844;BME280;1937;51.444;6.484;2023-09-18T09:55:23;70477.09;;;23.32;75.32
3844;BME280;1937;51.444;6.484;2023-09-18T09:57:52;70557.38;;;23.55;73.61
3844;BME280;1937;51.444;6.484;2023-09-18T10:00:19;70560.69;;;23.66;74.01
3844;BME280;1937;51.444;6.484;2023-09-18T10:02:59;70614.31;;;23.87;72.96
3844;BME280;1937;51.444;6.484;2023-09-18T10:05:29;70564.00;;;23.78;73.62
3844;BME280;1937;51.444;6.484;2023-09-18T10:08:02;70651.56;;;24.07;72.10
3844;BME280;1937;51.444;6.484;2023-09-18T10:10:35;70686.59;;;24.30;71.82
3844;BME280;1937;51.444;6.484;2023-09-18T10:13:07;70724.16;;;24.42;71.57
3844;BME280;1937;51.444;6.484;2023-09-18T10:15:35;70720.91;;;24.41;71.83
3844;BME280;1937;51.444;6.484;2023-09-18T10:18:10;70832.97;;;24.89;70.85
3844;BME280;1937;51.444;6.484;2023-09-18T10:20:44;70755.13;;;24.83;69.94
3844;BME280;1937;51.444;6.484;2023-09-18T10:23:23;70657.91;;;24.57;70.02
3844;BME280;1937;51.444;6.484;2023-09-18T10:25:59;70731.94;;;24.73;70.52
3844;BME280;1937;51.444;6.484;2023-09-18T10:28:30;71000.75;;;25.52;68.65
3844;BME280;1937;51.444;6.484;2023-09-18T10:30:58;71003.91;;;25.66;67.19
3844;BME280;1937;51.444;6.484;2023-09-18T10:33:29;70931.16;;;25.49;67.59
3844;BME280;1937;51.444;6.484;2023-09-18T10:35:56;70770.00;;;25.16;68.38
3844;BME280;1937;51.444;6.484;2023-09-18T10:38:27;70688.22;;;25.16;67.05
3844;BME280;1937;51.444;6.484;2023-09-18T10:40:56;70718.44;;;25.17;68.31
3844;BME280;1937;51.444;6.484;2023-09-18T10:43:24;70733.44;;;25.18;68.72
3844;BME280;1937;51.444;6.484;2023-09-18T10:45:51;70771.50;;;25.26;67.75
3844;BME280;1937;51.444;6.484;2023-09-18T10:48:19;70883.38;;;25.58;66.59
3844;BME280;1937;51.444;6.484;2023-09-18T10:50:48;71008.50;;;25.96;67.94
3844;BME280;1937;51.444;6.484;2023-09-18T10:53:15;71016.97;;;26.03;65.11
3844;BME280;1937;51.444;6.484;2023-09-18T10:55:42;70835.44;;;25.62;66.15
3844;BME280;1937;51.444;6.484;2023-09-18T10:58:10;70928.81;;;25.83;65.64
3844;BME280;1937;51.444;6.484;2023-09-18T11:00:41;70750.53;;;25.48;66.73
3844;BME280;1937;51.444;6.484;2023-09-18T11:03:13;70964.88;;;25.91;66.40
3844;BME280;1937;51.444;6.484;2023-09-18T11:05:44;70941.88;;;26.14;64.83
3844;BME280;1937;51.444;6.484;2023-09-18T11:08:28;70884.97;;;25.97;64.85
3844;BME280;1937;51.444;6.484;2023-09-18T11:10:56;70895.38;;;25.92;64.83
3844;BME280;1937;51.444;6.484;2023-09-18T11:13:31;70721.41;;;25.55;65.04
3844;BME280;1937;51.444;6.484;2023-09-18T11:16:02;70800.81;;;25.71;64.56
3844;BME280;1937;51.444;6.484;2023-09-18T11:18:32;70653.09;;;25.35;65.01
3844;BME280;1937;51.444;6.484;2023-09-18T11:21:07;70683.75;;;25.50;64.87
3844;BME280;1937;51.444;6.484;2023-09-18T11:23:35;70753.22;;;25.77;64.68
3844;BME280;1937;51.444;6.484;2023-09-18T11:26:04;70830.22;;;25.91;65.59
3844;BME280;1937;51.444;6.484;2023-09-18T11:28:32;70951.72;;;26.26;64.38
3844;BME280;1937;51.444;6.484;2023-09-18T11:30:59;70955.09;;;26.31;63.50
3844;BME280;1937;51.444;6.484;2023-09-18T11:33:31;70925.56;;;26.35;63.37
3844;BME280;1937;51.444;6.484;2023-09-18T11:36:03;70987.31;;;26.56;62.69
3844;BME280;1937;51.444;6.484;2023-09-18T11:38:32;70959.00;;;26.43;63.03
3844;BME280;1937;51.444;6.484;2023-09-18T11:41:01;70926.56;;;26.38;62.99
3844;BME280;1937;51.444;6.484;2023-09-18T11:43:47;70997.38;;;26.67;62.12
3844;BME280;1937;51.444;6.484;2023-09-18T11:46:18;70667.91;;;25.79;63.08
3844;BME280;1937;51.444;6.484;2023-09-18T11:48:47;70578.66;;;25.46;63.39
3844;BME280;1937;51.444;6.484;2023-09-18T11:51:23;70561.50;;;25.40;64.21
3844;BME280;1937;51.444;6.484;2023-09-18T11:53:52;70490.13;;;25.24;64.43
3844;BME280;1937;51.444;6.484;2023-09-18T11:56:22;70582.38;;;25.53;63.86
3844;BME280;1937;51.444;6.484;2023-09-18T11:58:51;70581.66;;;25.48;64.00
3844;BME280;1937;51.444;6.484;2023-09-18T12:01:20;70445.97;;;25.07;64.91
3844;BME280;1937;51.444;6.484;2023-09-18T12:03:53;70477.31;;;25.27;64.74
3844;BME280;1937;51.444;6.484;2023-09-18T12:06:19;70395.16;;;24.91;66.41
3844;BME280;1937;51.444;6.484;2023-09-18T12:08:46;70432.13;;;24.84;65.49
3844;BME280;1937;51.444;6.484;2023-09-18T12:11:16;70472.94;;;24.97;65.12
3844;BME280;1937;51.444;6.484;2023-09-18T12:13:45;70494.31;;;25.28;63.39
3844;BME280;1937;51.444;6.484;2023-09-18T12:16:13;70653.63;;;25.82;61.68
3844;BME280;1937;51.444;6.484;2023-09-18T12:18:45;70717.06;;;26.04;60.20
3844;BME280;1937;51.444;6.484;2023-09-18T12:21:13;70682.25;;;25.97;61.12
3844;BME280;1937;51.444;6.484;2023-09-18T12:23:41;70666.03;;;25.95;60.76
3844;BME280;1937;51.444;6.484;2023-09-18T12:26:10;70674.81;;;26.04;59.71
3844;BME280;1937;51.444;6.484;2023-09-18T12:28:38;70742.22;;;26.21;59.22
3844;BME280;1937;51.444;6.484;2023-09-18T12:31:06;70809.25;;;26.53;58.75
3844;BME280;1937;51.444;6.484;2023-09-18T12:33:38;70849.91;;;26.67;59.06
3844;BME280;1937;51.444;6.484;2023-09-18T12:36:07;70715.75;;;26.39;59.41
3844;BME280;1937;51.444;6.484;2023-09-18T12:38:34;70682.19;;;26.15;59.21
3844;BME280;1937;51.444;6.484;2023-09-18T12:41:02;70702.00;;;26.21;59.13
3844;BME280;1937;51.444;6.484;2023-09-18T12:43:34;70727.13;;;26.26;58.14
3844;BME280;1937;51.444;6.484;2023-09-18T12:46:02;70628.88;;;26.19;57.07
3844;BME280;1937;51.444;6.484;2023-09-18T12:48:30;70661.53;;;26.22;58.47
3844;BME280;1937;51.444;6.484;2023-09-18T12:51:03;70780.56;;;26.56;57.17
3844;BME280;1937;51.444;6.484;2023-09-18T12:53:30;70548.66;;;25.94;58.18
3844;BME280;1937;51.444;6.484;2023-09-18T12:56:04;70564.38;;;26.00;58.67
3844;BME280;1937;51.444;6.484;2023-09-18T12:58:32;70380.19;;;25.45;58.51
3844;BME280;1937;51.444;6.484;2023-09-18T13:01:04;70351.28;;;25.27;59.98
3844;BME280;1937;51.444;6.484;2023-09-18T13:03:33;70339.91;;;25.18;61.41
3844;BME280;1937;51.444;6.484;2023-09-18T13:06:09;70284.78;;;24.94;64.03
3844;BME280;1937;51.444;6.484;2023-09-18T13:08:35;70195.91;;;24.65;64.23
3844;BME280;1937;51.444;6.484;2023-09-18T13:11:02;70174.88;;;24.43;64.46
3844;BME280;1937;51.444;6.484;2023-09-18T13:13:30;70351.16;;;24.90;64.51
3844;BME280;1937;51.444;6.484;2023-09-18T13:15:57;70501.63;;;25.27;62.98
3844;BME280;1937;51.444;6.484;2023-09-18T13:18:25;70459.38;;;25.56;60.65
3844;BME280;1937;51.444;6.484;2023-09-18T13:20:52;70494.75;;;25.64;59.50
3844;BME280;1937;51.444;6.484;2023-09-18T13:23:27;70484.06;;;25.59;59.98